CMA CGM Columba — 2DBC9 — position and weather

sailwx.info

Track history (hours):
 
Tides and Currents Weather Stations Pressure Air Temp Water Temp Dewpoint Dewpoint Depression Visibility Wind Speed Wind Dir Waves Ship Positions

CMA CGM Columba

Last reported at 2014-Oct-25 22:33 UTC. Time now 2014-Oct-25 22:56 UTC.
Position N 53°32' E 009°55'.

Length 363 m; draft 13.6 m.

Type: Ship (hazmat cat A). MMSI: 235077448.

Date/timePositionNaut miles runAvg speedWind from/ knotsBaromVisibWave heightAir tempDewpointWater temp
2014-Oct-25 22:33N 53°32' E 009°55'0 0.0
2014-Oct-25 21:33N 53°32' E 009°55'0 0.0
2014-Oct-25 20:33N 53°32' E 009°55'0 0.0
2014-Oct-25 19:33N 53°32' E 009°55'0 0.0
2014-Oct-25 18:33N 53°32' E 009°55'0 0.0
2014-Oct-25 17:33N 53°32' E 009°55'2 2.1
2014-Oct-25 16:33N 53°33' E 009°51'9 8.7
2014-Oct-25 15:34N 53°35' E 009°37'1110.9
2014-Oct-25 14:32N 53°44' E 009°27'1313.3
2014-Oct-25 13:33N 53°53' E 009°10'1312.6
2014-Oct-25 12:33N 53°50' E 008°49'1211.7
2014-Oct-25 11:33N 53°58' E 008°34'1515.1
2014-Oct-25 10:33N 53°59' E 008°09'7 6.8
2014-Oct-25 09:33N 53°58' E 007°57'3 3.1
2014-Oct-25 08:33N 53°57' E 007°52'1010.1
2014-Oct-25 07:33N 53°55' E 007°35'3617.1
2014-Oct-25 05:25N 53°47' E 006°35'1719.6
2014-Oct-25 04:33N 53°43' E 006°07'1919.4
2014-Oct-25 03:33N 53°37' E 005°36'1919.2
2014-Oct-25 02:33N 53°31' E 005°06'1918.9
2014-Oct-25 01:33N 53°21' E 004°39'2519.6
2014-Oct-25 00:18N 52°59' E 004°20'1919.6
2014-Oct-24 23:21N 52°43' E 004°03'1519.4
2014-Oct-24 22:33N 52°31' E 003°48'6418.9
2014-Oct-24 19:12N 51°46' E 002°35'1219.4
2014-Oct-24 18:33N 51°36' E 002°22'2020.0
2014-Oct-24 17:33N 51°21' E 002°01'2020.3
2014-Oct-24 16:33N 51°06' E 001°39'2020.2
2014-Oct-24 15:34N 50°49' E 001°23'2019.6
2014-Oct-24 14:33N 50°33' E 001°04'7719.4
2014-Oct-24 10:33N 49°33' W 000°12'1414.0
2014-Oct-24 09:33N 49°28' E 000°08'2 1.5
2014-Oct-24 08:32N 49°27' E 000°10'0 0.0
2014-Oct-24 07:32N 49°27' E 000°10'0 0.0
2014-Oct-24 06:32N 49°27' E 000°10'0 0.0
2014-Oct-24 05:32N 49°27' E 000°10'0 0.0
2014-Oct-24 04:32N 49°27' E 000°10'0 0.0
2014-Oct-24 03:32N 49°27' E 000°10'0 0.0
2014-Oct-24 02:32N 49°27' E 000°10'0 0.0
2014-Oct-24 01:32N 49°27' E 000°10'0 0.0
2014-Oct-24 00:32N 49°27' E 000°10'0 0.0
2014-Oct-23 23:32N 49°27' E 000°10'0 0.0
2014-Oct-23 22:32N 49°27' E 000°10'0 0.0
2014-Oct-23 21:32N 49°27' E 000°10'0 0.0
2014-Oct-23 20:32N 49°27' E 000°10'0 0.0
2014-Oct-23 19:32N 49°27' E 000°10'0 0.0
2014-Oct-23 18:32N 49°27' E 000°10'0 0.0
2014-Oct-23 17:32N 49°27' E 000°10'0 0.0
2014-Oct-23 16:32N 49°27' E 000°10'0 0.0
2014-Oct-23 15:29N 49°27' E 000°10'0 0.0
2014-Oct-23 14:32N 49°27' E 000°10'0 0.0
2014-Oct-23 13:32N 49°27' E 000°10'0 0.0
2014-Oct-23 12:33N 49°27' E 000°10'2 2.3
2014-Oct-23 11:34N 49°28' E 000°07'1212.2
2014-Oct-23 10:33N 49°33' W 000°10'6 5.9
2014-Oct-23 09:34N 49°37' W 000°17'4 3.7
2014-Oct-23 08:33N 49°36' W 000°11'1312.9
2014-Oct-23 07:33N 49°34' W 000°31'6119.6
2014-Oct-23 04:28N 49°54' W 001°59'1820.1
2014-Oct-23 03:33N 49°53' W 002°28'2019.6
2014-Oct-23 02:32N 49°45' W 002°56'18118.1
2014-Oct-22 16:33N 47°46' W 006°22'1919.4
2014-Oct-22 15:33N 47°29' W 006°35'49919.2
2014-Oct-21 13:33N 39°31' W 009°52'2019.7
2014-Oct-21 12:33N 39°11' W 009°53'2019.9
2014-Oct-21 11:33N 38°51' W 009°53'2019.9
2014-Oct-21 10:33N 38°32' W 009°48'2120.0
2014-Oct-21 09:31N 38°12' W 009°42'1920.1
2014-Oct-21 08:33N 37°53' W 009°37'2019.9
2014-Oct-21 07:33N 37°33' W 009°31'2019.5
2014-Oct-21 06:33N 37°14' W 009°25'2019.7
2014-Oct-21 05:33N 36°55' W 009°20'1918.9
2014-Oct-21 04:33N 36°42' W 009°02'2020.1
2014-Oct-21 03:33N 36°36' W 008°39'2020.0
2014-Oct-21 02:33N 36°30' W 008°15'2020.3
2014-Oct-21 01:33N 36°24' W 007°51'2020.4
2014-Oct-21 00:33N 36°17' W 007°27'2120.5
2014-Oct-20 23:33N 36°10' W 007°03'2020.4
2014-Oct-20 22:33N 36°04' W 006°39'5120.8
2014-Oct-20 20:05N 35°58' W 005°36'1019.2
2014-Oct-20 19:33N 36°01' W 005°24'21819.8
2014-Oct-20 08:33N 36°37' W 000°57'4920.7
2014-Oct-20 06:10N 36°45' E 000°03'1319.9
2014-Oct-20 05:32N 36°47' E 000°19'2020.1
2014-Oct-20 04:31N 36°50' E 000°44'1919.5
2014-Oct-20 03:33N 36°54' E 001°07'1919.1
2014-Oct-20 02:32N 36°57' E 001°31'13919.9
2014-Oct-19 19:33N 37°20' E 004°22'6519.7
2014-Oct-19 16:17N 37°27' E 005°43'1721.0
2014-Oct-19 15:28N 37°29' E 006°05'2520.2
2014-Oct-19 14:15N 37°31' E 006°35'1720.2
2014-Oct-19 13:25N 37°33' E 006°56'1919.9
2014-Oct-19 12:27N 37°35' E 007°21'2022.7
2014-Oct-19 11:33N 37°37' E 007°46'2118.2
2014-Oct-19 10:24N 37°39' E 008°12'3819.9
2014-Oct-19 08:31N 37°43' E 008°60'1919.8
2014-Oct-19 07:33N 37°41' E 009°24'2019.9
2014-Oct-19 06:32N 37°40' E 009°49'1919.6
2014-Oct-19 05:32N 37°39' E 010°14'1919.2
2014-Oct-19 04:32N 37°37' E 010°38'1919.7
2014-Oct-19 03:33N 37°30' E 011°01'2319.8
2014-Oct-19 02:24N 37°21' E 011°27'4020.4
2014-Oct-19 00:27N 37°03' E 012°12'1820.1
2014-Oct-18 23:33N 36°56' E 012°33'2020.2
2014-Oct-18 22:34N 36°50' E 012°56'2020.4
2014-Oct-18 21:33N 36°43' E 013°20'2820.1
2014-Oct-18 20:11N 36°35' E 013°53'1320.0
2014-Oct-18 19:33N 36°31' E 014°08'2019.8
2014-Oct-18 18:33N 36°26' E 014°32'1919.1
2014-Oct-18 17:33N 36°21' E 014°55'2019.3
2014-Oct-18 16:32N 36°15' E 015°19'1919.8
2014-Oct-18 15:33N 36°09' E 015°41'69419.7
2014-Oct-17 04:21N 32°39' E 029°02'1820.1
2014-Oct-17 03:27N 32°33' E 029°22'1819.8
2014-Oct-17 02:32N 32°28' E 029°43'2619.9
2014-Oct-17 01:14N 32°20' E 030°12'  
Track history (hours):
 
Tides and Currents Weather Stations Pressure Air Temp Water Temp Dewpoint Dewpoint Depression Visibility Wind Speed Wind Dir Waves Ship Positions

CMA CGM Columba

Last reported at 2014-Oct-25 22:33 UTC. Time now 2014-Oct-25 22:56 UTC.
Position N 53°32' E 009°55'.

Length 363 m; draft 13.6 m.

Type: Ship (hazmat cat A). MMSI: 235077448.

Date/timePositionNaut miles runAvg speedWind from/ knotsBaromVisibWave heightAir tempDewpointWater temp
2014-Oct-25 22:33N 53°32' E 009°55'0 0.0
2014-Oct-25 21:33N 53°32' E 009°55'0 0.0
2014-Oct-25 20:33N 53°32' E 009°55'0 0.0
2014-Oct-25 19:33N 53°32' E 009°55'0 0.0
2014-Oct-25 18:33N 53°32' E 009°55'0 0.0
2014-Oct-25 17:33N 53°32' E 009°55'2 2.1
2014-Oct-25 16:33N 53°33' E 009°51'9 8.7
2014-Oct-25 15:34N 53°35' E 009°37'1110.9
2014-Oct-25 14:32N 53°44' E 009°27'1313.3
2014-Oct-25 13:33N 53°53' E 009°10'1312.6
2014-Oct-25 12:33N 53°50' E 008°49'1211.7
2014-Oct-25 11:33N 53°58' E 008°34'1515.1
2014-Oct-25 10:33N 53°59' E 008°09'7 6.8
2014-Oct-25 09:33N 53°58' E 007°57'3 3.1
2014-Oct-25 08:33N 53°57' E 007°52'1010.1
2014-Oct-25 07:33N 53°55' E 007°35'3617.1
2014-Oct-25 05:25N 53°47' E 006°35'1719.6
2014-Oct-25 04:33N 53°43' E 006°07'1919.4
2014-Oct-25 03:33N 53°37' E 005°36'1919.2
2014-Oct-25 02:33N 53°31' E 005°06'1918.9
2014-Oct-25 01:33N 53°21' E 004°39'2519.6
2014-Oct-25 00:18N 52°59' E 004°20'1919.6
2014-Oct-24 23:21N 52°43' E 004°03'1519.4
2014-Oct-24 22:33N 52°31' E 003°48'6418.9
2014-Oct-24 19:12N 51°46' E 002°35'1219.4
2014-Oct-24 18:33N 51°36' E 002°22'2020.0
2014-Oct-24 17:33N 51°21' E 002°01'2020.3
2014-Oct-24 16:33N 51°06' E 001°39'2020.2
2014-Oct-24 15:34N 50°49' E 001°23'2019.6
2014-Oct-24 14:33N 50°33' E 001°04'7719.4
2014-Oct-24 10:33N 49°33' W 000°12'1414.0
2014-Oct-24 09:33N 49°28' E 000°08'2 1.5
2014-Oct-24 08:32N 49°27' E 000°10'0 0.0
2014-Oct-24 07:32N 49°27' E 000°10'0 0.0
2014-Oct-24 06:32N 49°27' E 000°10'0 0.0
2014-Oct-24 05:32N 49°27' E 000°10'0 0.0
2014-Oct-24 04:32N 49°27' E 000°10'0 0.0
2014-Oct-24 03:32N 49°27' E 000°10'0 0.0
2014-Oct-24 02:32N 49°27' E 000°10'0 0.0
2014-Oct-24 01:32N 49°27' E 000°10'0 0.0
2014-Oct-24 00:32N 49°27' E 000°10'0 0.0
2014-Oct-23 23:32N 49°27' E 000°10'0 0.0
2014-Oct-23 22:32N 49°27' E 000°10'0 0.0
2014-Oct-23 21:32N 49°27' E 000°10'0 0.0
2014-Oct-23 20:32N 49°27' E 000°10'0 0.0
2014-Oct-23 19:32N 49°27' E 000°10'0 0.0
2014-Oct-23 18:32N 49°27' E 000°10'0 0.0
2014-Oct-23 17:32N 49°27' E 000°10'0 0.0
2014-Oct-23 16:32N 49°27' E 000°10'0 0.0
2014-Oct-23 15:29N 49°27' E 000°10'0 0.0
2014-Oct-23 14:32N 49°27' E 000°10'0 0.0
2014-Oct-23 13:32N 49°27' E 000°10'0 0.0
2014-Oct-23 12:33N 49°27' E 000°10'2 2.3
2014-Oct-23 11:34N 49°28' E 000°07'1212.2
2014-Oct-23 10:33N 49°33' W 000°10'6 5.9
2014-Oct-23 09:34N 49°37' W 000°17'4 3.7
2014-Oct-23 08:33N 49°36' W 000°11'1312.9
2014-Oct-23 07:33N 49°34' W 000°31'6119.6
2014-Oct-23 04:28N 49°54' W 001°59'1820.1
2014-Oct-23 03:33N 49°53' W 002°28'2019.6
2014-Oct-23 02:32N 49°45' W 002°56'18118.1
2014-Oct-22 16:33N 47°46' W 006°22'1919.4
2014-Oct-22 15:33N 47°29' W 006°35'49919.2
2014-Oct-21 13:33N 39°31' W 009°52'2019.7
2014-Oct-21 12:33N 39°11' W 009°53'2019.9
2014-Oct-21 11:33N 38°51' W 009°53'2019.9
2014-Oct-21 10:33N 38°32' W 009°48'2120.0
2014-Oct-21 09:31N 38°12' W 009°42'1920.1
2014-Oct-21 08:33N 37°53' W 009°37'2019.9
2014-Oct-21 07:33N 37°33' W 009°31'2019.5
2014-Oct-21 06:33N 37°14' W 009°25'2019.7
2014-Oct-21 05:33N 36°55' W 009°20'1918.9
2014-Oct-21 04:33N 36°42' W 009°02'2020.1
2014-Oct-21 03:33N 36°36' W 008°39'2020.0
2014-Oct-21 02:33N 36°30' W 008°15'2020.3
2014-Oct-21 01:33N 36°24' W 007°51'2020.4
2014-Oct-21 00:33N 36°17' W 007°27'2120.5
2014-Oct-20 23:33N 36°10' W 007°03'2020.4
2014-Oct-20 22:33N 36°04' W 006°39'5120.8
2014-Oct-20 20:05N 35°58' W 005°36'1019.2
2014-Oct-20 19:33N 36°01' W 005°24'21819.8
2014-Oct-20 08:33N 36°37' W 000°57'4920.7
2014-Oct-20 06:10N 36°45' E 000°03'1319.9
2014-Oct-20 05:32N 36°47' E 000°19'2020.1
2014-Oct-20 04:31N 36°50' E 000°44'1919.5
2014-Oct-20 03:33N 36°54' E 001°07'1919.1
2014-Oct-20 02:32N 36°57' E 001°31'13919.9
2014-Oct-19 19:33N 37°20' E 004°22'6519.7
2014-Oct-19 16:17N 37°27' E 005°43'1721.0
2014-Oct-19 15:28N 37°29' E 006°05'2520.2
2014-Oct-19 14:15N 37°31' E 006°35'1720.2
2014-Oct-19 13:25N 37°33' E 006°56'1919.9
2014-Oct-19 12:27N 37°35' E 007°21'2022.7
2014-Oct-19 11:33N 37°37' E 007°46'2118.2
2014-Oct-19 10:24N 37°39' E 008°12'3819.9
2014-Oct-19 08:31N 37°43' E 008°60'1919.8
2014-Oct-19 07:33N 37°41' E 009°24'2019.9
2014-Oct-19 06:32N 37°40' E 009°49'1919.6
2014-Oct-19 05:32N 37°39' E 010°14'1919.2
2014-Oct-19 04:32N 37°37' E 010°38'1919.7
2014-Oct-19 03:33N 37°30' E 011°01'2319.8
2014-Oct-19 02:24N 37°21' E 011°27'4020.4
2014-Oct-19 00:27N 37°03' E 012°12'1820.1
2014-Oct-18 23:33N 36°56' E 012°33'2020.2
2014-Oct-18 22:34N 36°50' E 012°56'2020.4
2014-Oct-18 21:33N 36°43' E 013°20'2820.1
2014-Oct-18 20:11N 36°35' E 013°53'1320.0
2014-Oct-18 19:33N 36°31' E 014°08'2019.8
2014-Oct-18 18:33N 36°26' E 014°32'1919.1
2014-Oct-18 17:33N 36°21' E 014°55'2019.3
2014-Oct-18 16:32N 36°15' E 015°19'1919.8
2014-Oct-18 15:33N 36°09' E 015°41'69419.7
2014-Oct-17 04:21N 32°39' E 029°02'1820.1
2014-Oct-17 03:27N 32°33' E 029°22'1819.8
2014-Oct-17 02:32N 32°28' E 029°43'2619.9
2014-Oct-17 01:14N 32°20' E 030°12'  

Dump ship's entire track history